Time;durP1;ratioP1;P1;durP2;ratioP2;P2;SDS_P1;SDS_P2;PMS_P1;PMS_P2;Temp;Humidity;BMP_temperature;BMP_pressure;BME280_temperature;BME280_humidity;BME280_pressure;Samples;Min_cycle;Max_cycle;Signal;HPM_P1;HPM_P2
2021/04/01 00:01:10;;;;;;;40.40;22.40;;;;;;;18.89;47.05;102051.75;5068264;28;20063;-82
2021/04/01 00:03:39;;;;;;;37.83;20.60;;;;;;;18.87;47.33;102053.59;5067969;28;20045;-82
2021/04/01 00:06:05;;;;;;;34.70;19.67;;;;;;;18.84;47.33;102050.13;5068464;28;20029;-83
2021/04/01 00:08:32;;;;;;;41.65;23.25;;;;;;;18.80;46.94;102035.06;5067345;28;20056;-83
2021/04/01 00:10:59;;;;;;;39.33;22.15;;;;;;;18.81;46.41;102031.47;5060035;28;20068;-86
2021/04/01 00:13:25;;;;;;;39.47;21.10;;;;;;;18.84;46.57;102025.97;5053149;28;20036;-83
2021/04/01 00:15:53;;;;;;;43.90;22.73;;;;;;;18.85;46.74;102035.78;5047776;28;20065;-84
2021/04/01 00:18:21;;;;;;;49.55;24.42;;;;;;;18.85;46.70;102038.47;5051750;28;20033;-85
2021/04/01 00:20:48;;;;;;;43.88;23.63;;;;;;;18.84;46.40;102034.91;5054628;28;20017;-84
2021/04/01 00:23:15;;;;;;;44.25;24.23;;;;;;;18.81;46.25;102032.31;5054328;28;20037;-84
2021/04/01 00:25:41;;;;;;;41.47;22.10;;;;;;;18.83;46.20;102040.31;5053089;28;20112;-84
2021/04/01 00:28:08;;;;;;;43.72;23.45;;;;;;;18.85;46.31;102033.09;5047119;28;20108;-84
2021/04/01 00:30:35;;;;;;;37.53;21.38;;;;;;;18.88;46.22;102033.00;5037549;28;20025;-84
2021/04/01 00:33:01;;;;;;;39.58;22.17;;;;;;;18.91;46.28;102035.59;5040726;28;20025;-84
2021/04/01 00:35:28;;;;;;;37.17;21.63;;;;;;;18.91;46.54;102033.78;5054009;28;20033;-82
2021/04/01 00:37:54;;;;;;;40.97;22.23;;;;;;;18.89;47.00;102040.09;5054369;28;20025;-83
2021/04/01 00:40:23;;;;;;;44.42;22.65;;;;;;;18.89;46.88;102035.63;5045888;28;20029;-84
2021/04/01 00:42:50;;;;;;;43.97;23.98;;;;;;;18.85;46.74;102033.09;5054904;28;20040;-84
2021/04/01 00:45:17;;;;;;;45.72;23.27;;;;;;;18.89;46.28;102035.63;5054454;28;20427;-84
2021/04/01 00:47:47;;;;;;;39.90;22.88;;;;;;;18.89;46.01;102041.00;5054248;28;20166;-83
2021/04/01 00:50:18;;;;;;;44.00;24.92;;;;;;;18.78;46.81;102053.94;5053890;28;20052;-83
2021/04/01 00:52:45;;;;;;;41.97;23.50;;;;;;;18.74;46.42;102039.72;5018644;28;20039;-83
2021/04/01 00:55:13;;;;;;;45.80;22.63;;;;;;;18.76;46.29;102056.66;5034858;28;20022;-83
2021/04/01 00:57:44;;;;;;;45.92;23.63;;;;;;;18.80;46.07;102046.69;5033829;28;20689;-84
2021/04/01 01:00:15;;;;;;;49.60;24.95;;;;;;;18.82;45.76;102046.66;5033245;28;20496;-84
2021/04/01 01:02:41;;;;;;;45.38;21.55;;;;;;;18.80;45.45;102043.13;5053691;28;20047;-85
2021/04/01 01:05:10;;;;;;;40.83;21.45;;;;;;;18.83;45.33;102043.00;5054822;28;20052;-84
2021/04/01 01:07:37;;;;;;;41.00;21.50;;;;;;;18.83;45.02;102049.28;5055684;28;20112;-84
2021/04/01 01:10:09;;;;;;;45.22;23.85;;;;;;;18.82;45.08;102043.97;5055728;28;20448;-83
2021/04/01 01:12:36;;;;;;;48.03;23.42;;;;;;;18.84;44.84;102052.81;5055539;28;21401;-84
2021/04/01 01:15:04;;;;;;;53.55;26.15;;;;;;;18.80;44.84;102048.50;5055582;28;20076;-84
2021/04/01 01:17:30;;;;;;;46.35;24.00;;;;;;;18.79;44.61;102042.25;5031218;28;20120;-83
2021/04/01 01:19:57;;;;;;;45.08;23.92;;;;;;;18.79;44.14;102054.78;5034952;28;20033;-84
2021/04/01 01:22:24;;;;;;;38.63;22.08;;;;;;;18.79;44.05;102054.78;5035156;28;20128;-83
2021/04/01 01:24:52;;;;;;;46.65;24.83;;;;;;;18.78;43.97;102053.94;5035178;28;20048;-84
2021/04/01 01:27:20;;;;;;;43.08;22.75;;;;;;;18.74;43.94;102061.22;5033476;28;20110;-84
2021/04/01 01:29:48;;;;;;;43.42;24.02;;;;;;;18.73;43.66;102050.53;5033620;28;20063;-82
2021/04/01 01:32:19;;;;;;;41.78;22.63;;;;;;;18.71;43.51;102047.88;5033421;28;20057;-84
2021/04/01 01:34:47;;;;;;;49.67;23.50;;;;;;;18.63;43.83;102055.34;5034411;28;20387;-84
2021/04/01 01:37:14;;;;;;;45.67;25.55;;;;;;;18.58;44.04;102060.00;5034058;28;20030;-83
2021/04/01 01:39:42;;;;;;;43.35;24.10;;;;;;;18.49;43.82;102052.25;5039467;28;20045;-84
2021/04/01 01:42:08;;;;;;;45.60;22.35;;;;;;;18.40;44.13;102056.13;5047998;28;20361;-84
2021/04/01 01:44:35;;;;;;;40.85;22.67;;;;;;;18.33;44.47;102058.16;5052412;28;20384;-83
2021/04/01 01:47:01;;;;;;;42.88;23.13;;;;;;;18.25;44.02;102054.81;5052925;28;20479;-84
2021/04/01 01:49:38;;;;;;;49.35;24.00;;;;;;;18.19;43.91;102065.75;5053280;28;20031;-83
2021/04/01 01:52:04;;;;;;;46.35;23.13;;;;;;;18.14;44.12;102067.72;5052441;28;20029;-85
2021/04/01 01:54:31;;;;;;;49.20;24.27;;;;;;;18.05;44.12;102069.75;5050105;28;20033;-84
2021/04/01 01:56:57;;;;;;;41.45;22.10;;;;;;;18.00;44.54;102071.69;5053115;28;20112;-84
2021/04/01 01:59:31;;;;;;;46.35;22.40;;;;;;;17.98;44.40;102061.97;5034892;28;20057;-82
2021/04/01 02:01:58;;;;;;;46.92;23.33;;;;;;;17.84;44.08;102059.69;5039187;28;20453;-83
2021/04/01 02:04:24;;;;;;;48.50;23.50;;;;;;;17.72;44.27;102067.19;5032742;28;20140;-83
2021/04/01 02:06:51;;;;;;;47.22;22.75;;;;;;;17.72;44.11;102085.94;5032623;28;20427;-84
2021/04/01 02:09:23;;;;;;;46.90;22.85;;;;;;;17.68;44.70;102070.00;5032475;28;20423;-83
2021/04/01 02:11:50;;;;;;;43.80;21.70;;;;;;;17.65;44.49;102080.81;5032675;28;20033;-82
2021/04/01 02:14:17;;;;;;;42.78;21.27;;;;;;;17.58;45.15;102082.78;5033432;28;20029;-83
2021/04/01 02:16:44;;;;;;;49.47;24.33;;;;;;;17.51;45.50;102078.53;5035648;28;20024;-83
2021/04/01 02:19:11;;;;;;;45.97;22.83;;;;;;;17.47;45.23;102093.84;5052126;28;20085;-83
2021/04/01 02:21:37;;;;;;;44.05;20.88;;;;;;;17.39;45.55;102083.31;5052013;28;20029;-84
2021/04/01 02:24:04;;;;;;;49.45;24.30;;;;;;;17.30;45.35;102087.13;5051953;28;20064;-84
2021/04/01 02:26:30;;;;;;;44.92;20.52;;;;;;;17.33;45.13;102080.81;5051445;28;20425;-84
2021/04/01 02:28:57;;;;;;;48.15;23.63;;;;;;;17.27;45.13;102070.28;5052475;28;20531;-83
2021/04/01 02:31:23;;;;;;;43.72;22.17;;;;;;;17.24;45.52;102078.41;5051851;28;20029;-84
2021/04/01 02:33:52;;;;;;;51.55;23.42;;;;;;;17.10;46.09;102085.03;5051873;28;20495;-84
2021/04/01 02:36:19;;;;;;;52.38;24.05;;;;;;;17.07;45.87;102077.09;5051181;28;20028;-84
2021/04/01 02:38:46;;;;;;;40.67;21.60;;;;;;;16.93;46.33;102076.56;5051849;28;20103;-83
2021/04/01 02:41:12;;;;;;;45.88;22.15;;;;;;;16.90;45.86;102082.88;5050687;28;20034;-83
2021/04/01 02:43:39;;;;;;;49.15;23.38;;;;;;;16.82;46.09;102088.44;5051577;28;20051;-84
2021/04/01 02:46:07;;;;;;;52.03;23.08;;;;;;;16.86;46.20;102065.13;5051658;28;20392;-83
2021/04/01 02:48:34;;;;;;;48.30;22.90;;;;;;;16.89;46.12;102069.53;5044692;22;20088;-85
2021/04/01 02:51:01;;;;;;;48.80;23.92;;;;;;;16.84;46.00;102076.81;5035980;28;20030;-86
2021/04/01 02:53:28;;;;;;;48.20;23.92;;;;;;;16.74;46.42;102071.69;5037697;28;20124;-85
2021/04/01 02:55:55;;;;;;;49.35;23.75;;;;;;;16.76;46.53;102075.19;5038482;28;20112;-85
2021/04/01 02:58:22;;;;;;;47.63;22.02;;;;;;;16.71;46.31;102077.13;5039697;28;20033;-85
2021/04/01 03:00:49;;;;;;;45.05;21.52;;;;;;;16.67;46.29;102067.41;5036486;28;20059;-85
2021/04/01 03:03:20;;;;;;;43.47;21.63;;;;;;;16.64;46.50;102080.88;5044339;28;20071;-85
2021/04/01 03:05:47;;;;;;;55.05;23.83;;;;;;;16.57;46.70;102079.25;5032912;28;20026;-85
2021/04/01 03:08:14;;;;;;;45.60;21.67;;;;;;;16.56;46.56;102083.75;5040496;28;20037;-85
2021/04/01 03:10:41;;;;;;;47.63;21.13;;;;;;;16.55;46.58;102081.09;5042860;28;20415;-85
2021/04/01 03:13:09;;;;;;;45.65;20.38;;;;;;;16.54;46.49;102069.53;5043554;28;20036;-85
2021/04/01 03:15:35;;;;;;;50.17;22.52;;;;;;;16.49;46.58;102072.31;5035064;28;20030;-85
2021/04/01 03:18:02;;;;;;;44.53;21.38;;;;;;;16.50;46.56;102075.88;5043062;28;20168;-86
2021/04/01 03:20:28;;;;;;;48.00;23.02;;;;;;;16.52;46.36;102082.06;5040959;28;20033;-84
2021/04/01 03:22:54;;;;;;;51.08;22.25;;;;;;;16.49;46.19;102069.63;5039349;28;20030;-85
2021/04/01 03:25:21;;;;;;;50.45;22.27;;;;;;;16.53;46.33;102073.13;5047348;28;20130;-85
2021/04/01 03:27:48;;;;;;;49.92;22.90;;;;;;;16.50;46.19;102074.06;5044137;28;20479;-85
2021/04/01 03:30:15;;;;;;;48.22;21.83;;;;;;;16.49;45.81;102069.63;5034555;28;20037;-85
2021/04/01 03:32:52;;;;;;;47.75;21.95;;;;;;;16.57;45.44;102074.78;5040438;28;20033;-87
2021/04/01 03:35:25;;;;;;;56.22;23.70;;;;;;;16.63;45.26;102073.75;5039639;28;20029;-85
2021/04/01 03:38:01;;;;;;;56.50;23.88;;;;;;;16.65;45.10;102066.59;5034102;28;20034;-87
2021/04/01 03:40:32;;;;;;;53.47;23.33;;;;;;;16.63;44.97;102068.41;5047836;28;20071;-89
2021/04/01 03:42:58;;;;;;;49.25;22.98;;;;;;;16.60;45.06;102073.84;5039182;28;20068;-86
2021/04/01 03:45:25;;;;;;;53.72;23.67;;;;;;;16.58;45.20;102070.31;5039920;28;20108;-85
2021/04/01 03:47:51;;;;;;;53.50;22.70;;;;;;;16.53;45.15;102082.94;5042075;28;20025;-85
2021/04/01 03:50:18;;;;;;;50.88;21.95;;;;;;;16.48;45.20;102081.25;5045095;28;20372;-85
2021/04/01 03:52:44;;;;;;;51.70;22.13;;;;;;;16.45;45.38;102077.78;5042504;28;20025;-87
2021/04/01 03:57:58;;;;;;;45.58;20.27;;;;;;;16.38;45.67;102082.41;5069743;28;21315;-85
2021/04/01 04:00:29;;;;;;;52.05;22.05;;;;;;;16.26;46.21;102085.38;5059048;28;20060;-85
2021/04/01 04:05:49;;;;;;;52.78;22.98;;;;;;;16.11;46.61;102076.81;5080515;27;20433;-85
2021/04/01 04:11:08;;;;;;;56.78;22.30;;;;;;;15.94;47.15;102100.38;5117506;27;20366;-85
2021/04/01 04:16:26;;;;;;;54.05;22.13;;;;;;;15.83;47.60;102097.94;5080609;28;20424;-85
2021/04/01 04:18:52;;;;;;;49.15;22.05;;;;;;;15.80;47.41;102093.50;5038069;28;20517;-84
2021/04/01 04:21:19;;;;;;;55.92;22.42;;;;;;;15.78;47.21;102095.31;5034406;28;20061;-87
2021/04/01 04:23:46;;;;;;;44.72;21.20;;;;;;;15.77;47.29;102093.56;5038843;28;20029;-86
2021/04/01 04:26:14;;;;;;;48.17;22.33;;;;;;;15.79;47.30;102090.88;5032980;28;20083;-86
2021/04/01 04:28:41;;;;;;;49.90;22.65;;;;;;;15.80;47.26;102097.97;5038726;28;20030;-86
2021/04/01 04:31:07;;;;;;;44.83;20.38;;;;;;;15.80;47.22;102098.84;5033984;28;20033;-85
2021/04/01 04:33:34;;;;;;;45.92;22.05;;;;;;;15.81;47.18;102103.28;5031348;28;20037;-85
2021/04/01 04:36:04;;;;;;;53.20;23.17;;;;;;;15.79;47.49;102102.44;5034653;28;20460;-85
2021/04/01 04:38:30;;;;;;;49.20;22.45;;;;;;;15.83;47.23;102106.81;5030533;28;20441;-88
2021/04/01 04:40:58;;;;;;;51.45;22.88;;;;;;;15.82;47.21;102107.72;5041611;28;20045;-84
2021/04/01 04:43:26;;;;;;;46.53;21.60;;;;;;;15.78;47.47;102103.34;5046580;28;20073;-86
2021/04/01 04:45:53;;;;;;;56.10;24.42;;;;;;;15.75;47.63;102100.75;5047397;28;20026;-85
2021/04/01 04:48:19;;;;;;;50.17;22.83;;;;;;;15.73;47.62;102099.03;5047174;28;20454;-85
2021/04/01 04:50:46;;;;;;;52.85;24.83;;;;;;;15.72;47.75;102106.16;5041700;28;20130;-85
2021/04/01 04:53:14;;;;;;;54.25;25.35;;;;;;;15.66;47.84;102108.94;5031893;28;20069;-84
2021/04/01 04:55:45;;;;;;;63.33;28.00;;;;;;;15.64;47.92;102105.44;5036969;28;20021;-84
2021/04/01 04:58:20;;;;;;;64.95;29.08;;;;;;;15.63;47.93;102104.56;5034710;28;20029;-84
2021/04/01 05:06:40;;;;;;;60.42;27.98;;;;;;;15.61;48.06;102109.03;5040473;28;20030;-85
2021/04/01 05:09:05;;;;;;;64.05;30.45;;;;;;;15.53;48.48;102105.66;5039866;28;20503;-84
2021/04/01 05:11:33;;;;;;;64.60;30.00;;;;;;;15.49;48.49;102128.00;5046423;28;20029;-84
2021/04/01 05:14:00;;;;;;;71.38;34.20;;;;;;;15.47;48.99;102122.69;5041266;28;20022;-85
2021/04/01 05:16:27;;;;;;;68.22;33.00;;;;;;;15.39;49.23;102121.97;5042383;28;20025;-86
2021/04/01 05:18:55;;;;;;;70.95;35.90;;;;;;;15.35;49.41;102117.56;5046723;28;20021;-85
2021/04/01 05:21:30;;;;;;;70.38;35.17;;;;;;;15.27;49.92;102127.56;5041482;28;20089;-87
2021/04/01 05:23:57;;;;;;;72.80;34.63;;;;;;;15.32;49.79;102131.88;5041991;28;20029;-85
2021/04/01 05:29:05;;;;;;;74.28;35.78;;;;;;;15.24;50.23;102141.84;5077486;27;20482;-87
2021/04/01 05:31:36;;;;;;;84.28;36.80;;;;;;;15.12;50.76;102147.41;5060605;28;20052;-85
2021/04/01 05:34:03;;;;;;;85.85;39.10;;;;;;;15.07;51.11;102143.94;5059843;28;20060;-86
2021/04/01 05:36:33;;;;;;;80.28;39.10;;;;;;;14.96;51.73;102142.31;5061218;28;20426;-85
2021/04/01 05:39:00;;;;;;;76.88;39.58;;;;;;;15.00;51.62;102148.50;5067902;28;20111;-87
2021/04/01 05:41:29;;;;;;;87.35;42.95;;;;;;;14.96;52.11;102152.13;5052050;28;20041;-87
2021/04/01 05:44:09;;;;;;;81.28;41.75;;;;;;;14.93;52.44;102157.50;5058934;28;20078;-86
2021/04/01 05:46:53;;;;;;;87.65;41.85;;;;;;;15.03;51.88;102162.66;5069176;22;20518;-80
2021/04/01 06:01:30;;;;;;;106.18;60.22;;;;;;;14.60;54.72;102181.13;5083959;27;20762;-83
2021/04/01 06:04:19;;;;;;;96.82;53.97;;;;;;;14.81;53.95;102191.50;5080660;28;20064;-84
2021/04/01 06:06:56;;;;;;;99.63;54.13;;;;;;;14.77;53.86;102195.13;5080308;28;20039;-85
2021/04/01 06:09:27;;;;;;;99.13;53.50;;;;;;;14.69;53.71;102194.34;5080546;28;20025;-85
2021/04/01 06:11:56;;;;;;;102.82;54.05;;;;;;;14.56;54.51;102206.97;5088707;28;20029;-84
2021/04/01 06:17:22;;;;;;;109.55;57.40;;;;;;;14.54;54.54;102222.09;5113931;27;20120;-84
2021/04/01 06:19:52;;;;;;;116.40;58.47;;;;;;;14.41;55.07;102218.75;5094414;28;20040;-84
2021/04/01 06:22:21;;;;;;;115.43;58.95;;;;;;;14.54;55.09;102219.44;5096103;28;20028;-83
2021/04/01 06:24:49;;;;;;;114.85;58.42;;;;;;;14.45;55.11;102212.47;5090150;28;20103;-85
2021/04/01 06:27:23;;;;;;;117.45;62.17;;;;;;;14.54;54.88;102212.34;5088809;28;20073;-84
2021/04/01 06:30:15;;;;;;;113.78;57.50;;;;;;;14.57;54.46;102209.59;5074846;28;20020;-88
2021/04/01 06:32:47;;;;;;;110.77;57.87;;;;;;;14.69;54.23;102218.38;5085954;28;20029;-84
2021/04/01 06:35:32;;;;;;;110.20;58.95;;;;;;;14.62;54.54;102224.69;5087366;28;20379;-85
2021/04/01 06:46:21;;;;;;;135.65;69.70;;;;;;;14.84;54.01;102234.16;5106713;27;20363;-85
2021/04/01 06:54:46;;;;;;;118.78;60.75;;;;;;;15.00;53.95;102239.22;5087758;27;20468;-88
2021/04/01 07:03:08;;;;;;;121.90;62.92;;;;;;;15.10;53.22;102250.66;5104622;28;20444;-85
2021/04/01 07:08:55;;;;;;;138.60;67.07;;;;;;;14.83;53.91;102256.41;5066247;27;20146;-85
2021/04/01 07:11:29;;;;;;;122.30;62.97;;;;;;;14.82;54.00;102267.97;5068914;28;20094;-86
2021/04/01 07:14:01;;;;;;;118.07;60.40;;;;;;;14.97;53.92;102268.66;5069615;28;20431;-87
2021/04/01 07:19:33;;;;;;;123.05;60.95;;;;;;;15.09;53.75;102286.25;5089304;27;20577;-85
2021/04/01 07:35:57;;;;;;;131.95;64.43;;;;;;;14.99;54.27;102302.41;5051131;28;20037;-84
2021/04/01 07:46:58;;;;;;;132.90;66.20;;;;;;;15.24;53.80;102319.84;5026860;28;20037;-87
2021/04/01 07:49:27;;;;;;;131.13;67.88;;;;;;;15.12;54.41;102321.78;5038632;28;20499;-86
2021/04/01 07:51:58;;;;;;;123.40;65.88;;;;;;;15.18;54.27;102324.38;5055468;28;20032;-85
2021/04/01 07:54:28;;;;;;;123.35;66.97;;;;;;;15.23;54.39;102331.41;5066657;28;20102;-85
2021/04/01 07:57:13;;;;;;;129.35;65.55;;;;;;;15.11;54.59;102325.34;5046547;28;20025;-84
2021/04/01 08:02:33;;;;;;;121.50;62.28;;;;;;;15.16;54.64;102326.16;5057849;27;20146;-83
2021/04/01 08:05:00;;;;;;;120.28;61.25;;;;;;;15.19;54.62;102326.13;5060861;28;20025;-82
2021/04/01 08:07:32;;;;;;;112.28;58.88;;;;;;;15.45;54.36;102324.84;5043361;28;20116;-83
2021/04/01 08:10:03;;;;;;;111.20;53.40;;;;;;;15.14;55.31;102327.09;5034803;28;20018;-87
2021/04/01 08:12:35;;;;;;;94.60;46.65;;;;;;;15.32;54.36;102336.63;5039803;28;20036;-86
2021/04/01 08:15:10;;;;;;;81.65;42.90;;;;;;;15.36;54.16;102327.66;5039699;28;20022;-85
2021/04/01 08:17:48;;;;;;;83.90;39.80;;;;;;;15.05;54.30;102344.13;5027636;28;20037;-85
2021/04/01 08:20:19;;;;;;;83.97;38.55;;;;;;;15.16;53.95;102330.63;5026954;28;20400;-84
2021/04/01 08:23:00;;;;;;;78.10;36.63;;;;;;;15.07;54.17;102337.00;5028638;28;20033;-83
2021/04/01 08:25:33;;;;;;;84.38;35.47;;;;;;;15.30;53.53;102339.31;5025993;28;20026;-88
2021/04/01 08:28:18;;;;;;;72.57;32.85;;;;;;;15.41;53.61;102331.13;5028283;28;20476;-86
2021/04/01 08:31:21;;;;;;;76.03;31.73;;;;;;;15.41;53.60;102340.94;5031660;28;20493;-85
2021/04/01 08:33:57;;;;;;;63.30;29.83;;;;;;;15.47;53.31;102338.16;5026654;28;20113;-85
2021/04/01 08:36:25;;;;;;;64.80;27.63;;;;;;;15.57;52.78;102341.56;5035743;28;20041;-83
2021/04/01 08:38:52;;;;;;;59.47;26.80;;;;;;;15.65;52.58;102337.84;5037445;28;20468;-83
2021/04/01 08:41:31;;;;;;;45.55;23.20;;;;;;;15.71;52.59;102349.34;5030169;28;20021;-83
2021/04/01 08:44:30;;;;;;;47.28;19.73;;;;;;;15.88;51.91;102357.97;5031747;28;20108;-85
2021/04/01 08:50:27;;;;;;;34.47;15.00;;;;;;;15.99;51.54;102368.47;5073146;28;20199;-87
2021/04/01 08:55:55;;;;;;;29.17;12.40;;;;;;;15.65;50.91;102366.34;5076029;28;20957;-86
2021/04/01 08:58:42;;;;;;;30.60;11.43;;;;;;;16.01;50.13;102369.31;5067848;28;20148;-86
2021/04/01 09:01:18;;;;;;;24.77;10.05;;;;;;;15.82;50.24;102360.75;5053327;28;20098;-85
2021/04/01 09:03:50;;;;;;;26.35;10.23;;;;;;;16.06;49.86;102377.25;5050134;28;20025;-86
2021/04/01 09:06:22;;;;;;;18.77;7.78;;;;;;;16.05;49.88;102384.41;5048962;28;20472;-86
2021/04/01 09:09:00;;;;;;;25.52;7.38;;;;;;;16.09;49.60;102390.56;5050247;28;20730;-87
2021/04/01 09:11:35;;;;;;;15.55;4.43;;;;;;;16.15;48.96;102391.34;5030669;28;20038;-86
2021/04/01 09:14:11;;;;;;;12.35;3.70;;;;;;;16.18;48.67;102380.56;5030027;28;20033;-86
2021/04/01 09:16:39;;;;;;;17.15;5.05;;;;;;;16.29;48.21;102391.06;5048248;28;20415;-86
2021/04/01 09:19:05;;;;;;;9.70;3.03;;;;;;;16.41;47.90;102391.72;5049725;28;20029;-86
2021/04/01 09:21:34;;;;;;;12.32;3.20;;;;;;;16.33;47.15;102390.09;5046571;28;20033;-87
2021/04/01 09:24:02;;;;;;;14.75;3.38;;;;;;;16.48;46.83;102401.41;5049513;28;20037;-86
2021/04/01 09:26:28;;;;;;;12.43;2.90;;;;;;;16.62;46.84;102385.06;5052228;28;20036;-87
2021/04/01 09:29:10;;;;;;;8.68;2.60;;;;;;;16.89;47.13;102396.13;5037433;28;20037;-87
2021/04/01 09:31:44;;;;;;;10.40;2.88;;;;;;;16.89;46.83;102385.41;5067490;28;20035;-88
2021/04/01 09:34:11;;;;;;;9.07;2.60;;;;;;;16.97;46.25;102388.81;5060919;28;20365;-88
2021/04/01 09:36:44;;;;;;;7.75;2.63;;;;;;;17.19;45.81;102385.66;5053796;28;20484;-88
2021/04/01 09:39:26;;;;;;;7.22;2.00;;;;;;;17.05;44.76;102392.22;5048585;28;20387;-84
2021/04/01 09:44:51;;;;;;;8.68;2.22;;;;;;;17.22;43.70;102382.91;5090570;28;20434;-84
2021/04/01 09:50:07;;;;;;;10.63;2.50;;;;;;;17.40;43.65;102393.19;5089270;27;20902;-82
2021/04/01 09:52:36;;;;;;;10.80;2.78;;;;;;;17.42;43.66;102396.72;5062805;28;20028;-80
2021/04/01 09:55:12;;;;;;;8.38;2.10;;;;;;;17.52;43.52;102396.47;5055600;28;20581;-80
2021/04/01 09:57:46;;;;;;;7.47;1.77;;;;;;;17.67;43.80;102390.75;5040408;28;20798;-83
2021/04/01 10:00:21;;;;;;;9.02;2.28;;;;;;;17.62;44.04;102398.91;5049190;28;20033;-83
2021/04/01 10:03:01;;;;;;;8.15;1.80;;;;;;;17.73;43.24;102404.00;5049700;28;20033;-83
2021/04/01 10:05:32;;;;;;;7.00;1.33;;;;;;;17.93;43.25;102391.88;5050069;28;20495;-84
2021/04/01 10:08:00;;;;;;;4.65;1.73;;;;;;;18.00;42.96;102396.19;5048369;28;20040;-82
2021/04/01 10:10:34;;;;;;;6.60;2.20;;;;;;;18.19;42.80;102403.75;5041319;28;20109;-84
2021/04/01 10:13:01;;;;;;;4.80;1.55;;;;;;;17.77;42.24;102408.38;5029897;28;20025;-84
2021/04/01 10:15:30;;;;;;;10.38;1.90;;;;;;;17.75;41.62;102410.19;5031674;28;20037;-83
2021/04/01 10:17:58;;;;;;;7.47;1.40;;;;;;;17.88;42.10;102407.19;5055153;22;20049;-96
2021/04/01 10:20:26;;;;;;;12.82;2.50;;;;;;;18.06;42.66;102412.13;5051813;28;20041;-95
2021/04/01 10:22:53;;;;;;;9.35;2.13;;;;;;;18.19;43.01;102419.84;5053461;28;20022;-96
2021/04/01 10:25:23;;;;;;;7.50;2.13;;;;;;;18.30;43.15;102415.06;5053018;28;20087;-96
2021/04/01 10:30:36;;;;;;;7.05;2.25;;;;;;;18.53;42.58;102411.75;5091693;27;20815;-95
2021/04/01 10:35:54;;;;;;;9.63;1.83;;;;;;;18.74;42.28;102433.50;5092965;27;20821;-96
2021/04/01 10:38:21;;;;;;;14.32;2.47;;;;;;;18.58;42.39;102430.41;5067319;28;20040;-95
2021/04/01 10:40:49;;;;;;;8.00;2.30;;;;;;;18.74;42.23;102430.81;5046218;28;20033;-95
2021/04/01 10:43:19;;;;;;;12.30;2.90;;;;;;;18.74;42.39;102434.41;5042020;28;20050;-92
2021/04/01 10:45:46;;;;;;;12.63;2.25;;;;;;;18.69;42.37;102430.09;5039662;28;20495;-93
2021/04/01 10:51:03;;;;;;;12.27;2.22;;;;;;;18.72;42.18;102435.38;5077015;27;20500;-80
2021/04/01 10:53:31;;;;;;;12.57;2.03;;;;;;;18.82;42.82;102433.31;5062462;28;20147;-90
2021/04/01 10:56:07;;;;;;;17.33;2.97;;;;;;;18.93;42.34;102439.28;5059160;28;20032;-83
2021/04/01 10:58:34;;;;;;;17.60;2.60;;;;;;;18.73;42.68;102438.00;5056519;28;20021;-82
2021/04/01 11:01:04;;;;;;;10.80;2.72;;;;;;;18.90;42.39;102440.25;5058235;28;20464;-82
2021/04/01 11:03:39;;;;;;;14.30;2.38;;;;;;;18.88;42.63;102435.81;5052476;28;20095;-87
2021/04/01 11:06:06;;;;;;;14.65;2.83;;;;;;;18.96;42.63;102439.16;5052166;28;20022;-81
2021/04/01 11:08:43;;;;;;;12.13;2.80;;;;;;;19.08;42.52;102438.81;5064855;28;20476;-82
2021/04/01 11:11:11;;;;;;;12.93;2.30;;;;;;;19.04;42.97;102441.63;5057202;28;20076;-88
2021/04/01 11:13:39;;;;;;;13.00;2.75;;;;;;;19.14;42.77;102436.84;5052067;28;20479;-83
2021/04/01 11:16:08;;;;;;;20.40;3.20;;;;;;;19.23;42.57;102444.66;5058212;28;20104;-83
2021/04/01 11:18:39;;;;;;;9.50;2.25;;;;;;;19.26;42.91;102446.34;5058888;28;20025;-85
2021/04/01 11:21:06;;;;;;;8.75;2.67;;;;;;;19.36;42.53;102455.88;5055635;28;20028;-86
2021/04/01 11:23:34;;;;;;;18.08;5.45;;;;;;;19.31;42.21;102452.47;5050949;28;20417;-84
2021/04/01 11:26:02;;;;;;;10.88;2.67;;;;;;;19.40;42.20;102461.13;5057315;28;20514;-83
2021/04/01 11:28:40;;;;;;;11.02;2.88;;;;;;;19.51;42.07;102458.06;5056755;28;20129;-87
2021/04/01 11:31:07;;;;;;;9.60;2.72;;;;;;;19.53;42.37;102463.41;5056292;28;20033;-84
2021/04/01 11:33:36;;;;;;;13.70;2.33;;;;;;;19.38;42.57;102462.97;5059735;28;20025;-84
2021/04/01 11:36:08;;;;;;;12.68;3.03;;;;;;;19.49;42.05;102475.19;5055085;28;20039;-84
2021/04/01 11:38:43;;;;;;;8.13;2.92;;;;;;;19.61;42.43;102468.53;5054618;28;20033;-84
2021/04/01 11:41:14;;;;;;;13.50;2.90;;;;;;;19.56;41.99;102472.28;5052895;28;20037;-84
2021/04/01 11:43:41;;;;;;;8.48;2.47;;;;;;;19.61;42.12;102482.84;5063618;28;20039;-84
2021/04/01 11:46:25;;;;;;;20.80;3.75;;;;;;;19.48;41.87;102478.81;5054598;28;20029;-83
2021/04/01 11:48:52;;;;;;;13.88;2.85;;;;;;;19.47;42.22;102482.44;5049684;28;20036;-82
2021/04/01 11:54:11;;;;;;;13.80;3.83;;;;;;;19.37;42.17;102476.47;5089559;27;20412;-85
2021/04/01 11:59:24;;;;;;;23.35;3.80;;;;;;;19.52;42.33;102485.84;5126659;27;20856;-82
2021/04/01 12:01:54;;;;;;;15.25;2.92;;;;;;;19.63;42.42;102482.84;5110771;28;20131;-82
2021/04/01 12:04:23;;;;;;;12.52;3.22;;;;;;;19.67;42.03;102485.34;5110271;28;20122;-83
2021/04/01 12:06:50;;;;;;;9.98;2.70;;;;;;;19.65;41.81;102492.59;5105362;28;20058;-83
2021/04/01 12:09:19;;;;;;;10.60;2.70;;;;;;;19.49;41.67;102485.94;5090077;28;20465;-91
2021/04/01 12:11:46;;;;;;;17.02;2.88;;;;;;;19.35;42.12;102492.63;5104917;28;20040;-83
2021/04/01 12:14:14;;;;;;;18.30;3.33;;;;;;;19.27;42.06;102486.59;5090213;28;20029;-82
2021/04/01 12:16:41;;;;;;;12.95;2.85;;;;;;;19.20;42.18;102482.34;5089889;28;20028;-83
2021/04/01 12:19:09;;;;;;;14.65;3.42;;;;;;;19.28;42.43;102480.31;5088855;28;20494;-90
2021/04/01 12:21:35;;;;;;;10.13;2.92;;;;;;;19.49;42.23;102485.94;5105321;28;20336;-82
2021/04/01 12:24:04;;;;;;;17.15;3.42;;;;;;;19.59;41.86;102492.78;5090659;28;20029;-83
2021/04/01 12:26:47;;;;;;;17.65;3.55;;;;;;;19.63;41.70;102493.59;5090055;28;20101;-83
2021/04/01 12:29:13;;;;;;;11.57;2.85;;;;;;;19.76;41.43;102505.69;5090341;28;20028;-82
2021/04/01 12:31:54;;;;;;;8.05;2.47;;;;;;;19.86;41.57;102490.16;5089841;28;20570;-86
2021/04/01 12:34:28;;;;;;;8.80;3.03;;;;;;;20.01;41.45;102499.53;5071194;28;20036;-83
2021/04/01 12:36:55;;;;;;;18.50;3.72;;;;;;;19.68;40.20;102502.38;5088398;28;20028;-83
2021/04/01 12:39:33;;;;;;;14.35;2.78;;;;;;;19.80;40.03;102495.72;5088491;28;20025;-87
2021/04/01 12:42:00;;;;;;;14.63;2.88;;;;;;;19.40;40.34;102497.84;5084990;28;20054;-87
2021/04/01 12:44:43;;;;;;;9.35;2.55;;;;;;;19.78;40.81;102494.91;5087412;28;20063;-86
2021/04/01 12:47:21;;;;;;;12.48;2.15;;;;;;;19.89;40.58;102498.16;5087161;28;20437;-87
2021/04/01 12:49:49;;;;;;;11.07;2.53;;;;;;;19.96;39.39;102494.31;5086686;28;20548;-85
2021/04/01 12:52:15;;;;;;;13.10;2.85;;;;;;;20.03;39.09;102493.16;5087234;28;20028;-88
2021/04/01 12:54:50;;;;;;;12.38;2.92;;;;;;;19.98;39.56;102503.22;5086920;28;20024;-86
2021/04/01 12:57:19;;;;;;;8.57;2.08;;;;;;;20.02;39.27;102512.06;5086085;28;20090;-87
2021/04/01 12:59:50;;;;;;;11.10;2.00;;;;;;;20.22;39.15;102500.63;5088821;28;20032;-86
2021/04/01 13:02:19;;;;;;;7.75;2.40;;;;;;;20.10;38.41;102509.09;5088498;28;20093;-85
2021/04/01 13:04:54;;;;;;;13.13;2.50;;;;;;;20.23;38.37;102505.06;5088648;28;20024;-86
2021/04/01 13:07:26;;;;;;;10.70;2.50;;;;;;;20.20;38.78;102515.97;5089520;28;20035;-86
2021/04/01 13:12:39;;;;;;;13.10;3.13;;;;;;;20.20;38.70;102516.81;5075383;28;20037;-87
2021/04/01 13:15:06;;;;;;;11.57;2.25;;;;;;;20.14;38.69;102508.97;5074528;28;20032;-87
2021/04/01 13:17:32;;;;;;;11.18;4.28;;;;;;;20.13;39.11;102519.78;5065538;28;20036;-88
2021/04/01 13:19:58;;;;;;;17.35;3.90;;;;;;;20.17;38.90;102513.34;5073227;28;20063;-90